Time;durP1;ratioP1;P1;durP2;ratioP2;P2;SDS_P1;SDS_P2;PMS_P1;PMS_P2;Temp;Humidity;BMP_temperature;BMP_pressure;BME280_temperature;BME280_humidity;BME280_pressure;Samples;Min_cycle;Max_cycle;Signal;HPM_P1;HPM_P2
2023/12/27 00:01:37;;;;;;;;;;;;;;;;;;5074980;28;824;-58
2023/12/27 00:04:02;;;;;;;;;;;;;;;;;;5074079;28;852;-59
2023/12/27 00:06:27;;;;;;;;;;;;;;;;;;5073104;28;899;-59
2023/12/27 00:08:52;;;;;;;;;;;;;;;;;;5071084;28;1356;-58
2023/12/27 00:11:18;;;;;;;;;;;;;;;;;;5072807;28;907;-58
2023/12/27 00:13:43;;;;;;;;;;;;;;;;;;5072203;28;861;-58
2023/12/27 00:16:08;;;;;;;;;;;;;;;;;;5072928;28;1906;-59
2023/12/27 00:18:34;;;;;;;;;;;;;;;;;;5072024;28;940;-58
2023/12/27 00:20:59;;;;;;;;;;;;;;;;;;5072094;28;1050;-59
2023/12/27 00:23:25;;;;;;;;;;;;;;;;;;5074361;28;912;-58
2023/12/27 00:25:51;;;;;;;;;;;;;;;;;;5074148;28;904;-58
2023/12/27 00:28:16;;;;;;;;;;;;;;;;;;5074011;28;892;-57
2023/12/27 00:30:41;;;;;;;;;;;;;;;;;;5073962;28;833;-58
2023/12/27 00:33:06;;;;;;;;;;;;;;;;;;5073717;28;904;-57
2023/12/27 00:35:32;;;;;;;;;;;;;;;;;;5073743;28;1898;-58
2023/12/27 00:37:57;;;;;;;;;;;;;;;;;;5072597;28;904;-58
2023/12/27 00:40:22;;;;;;;;;;;;;;;;;;5074137;28;789;-57
2023/12/27 00:42:48;;;;;;;;;;;;;;;;;;5073768;28;1019;-58
2023/12/27 00:45:14;;;;;;;;;;;;;;;;;;5073746;28;919;-58
2023/12/27 00:47:43;;;;;;;;;;;;;;;;;;5073767;28;837;-57
2023/12/27 00:50:08;;;;;;;;;;;;;;;;;;5072632;28;1229;-56
2023/12/27 00:52:34;;;;;;;;;;;;;;;;;;5074919;28;1543;-58
2023/12/27 00:54:59;;;;;;;;;;;;;;;;;;5088508;28;2015;-57
2023/12/27 00:57:25;;;;;;;;;;;;;;;;;;5073213;28;1164;-58
2023/12/27 00:59:50;;;;;;;;;;;;;;;;;;5091910;28;1250;-57
2023/12/27 01:02:15;;;;;;;;;;;;;;;;;;5072356;28;1350;-57
2023/12/27 01:04:41;;;;;;;;;;;;;;;;;;5079429;28;1235;-58
2023/12/27 01:07:06;;;;;;;;;;;;;;;;;;5081184;28;1147;-57
2023/12/27 01:09:31;;;;;;;;;;;;;;;;;;5071969;28;1148;-57
2023/12/27 01:11:56;;;;;;;;;;;;;;;;;;5071285;28;1171;-57
2023/12/27 01:14:22;;;;;;;;;;;;;;;;;;5084867;28;1926;-58
2023/12/27 01:16:47;;;;;;;;;;;;;;;;;;5075618;28;1183;-58
2023/12/27 01:19:12;;;;;;;;;;;;;;;;;;5069876;28;1218;-57
2023/12/27 01:21:38;;;;;;;;;;;;;;;;;;5073138;28;1148;-59
2023/12/27 01:24:03;;;;;;;;;;;;;;;;;;5076727;28;908;-59
2023/12/27 01:26:28;;;;;;;;;;;;;;;;;;5077723;28;808;-58
2023/12/27 01:28:54;;;;;;;;;;;;;;;;;;5076732;28;974;-58
2023/12/27 01:31:19;;;;;;;;;;;;;;;;;;5075344;28;1444;-58
2023/12/27 01:33:44;;;;;;;;;;;;;;;;;;5076642;28;1014;-58
2023/12/27 01:36:10;;;;;;;;;;;;;;;;;;5076489;28;1910;-58
2023/12/27 01:38:35;;;;;;;;;;;;;;;;;;5076862;28;876;-62
2023/12/27 01:41:00;;;;;;;;;;;;;;;;;;5075433;28;915;-58
2023/12/27 01:43:26;;;;;;;;;;;;;;;;;;5076340;28;839;-57
2023/12/27 01:45:51;;;;;;;;;;;;;;;;;;5076327;28;809;-58
2023/12/27 01:48:20;;;;;;;;;;;;;;;;;;5074957;28;936;-58
2023/12/27 01:50:50;;;;;;;;;;;;;;;;;;5074877;28;1064;-58
2023/12/27 01:53:16;;;;;;;;;;;;;;;;;;5074907;28;1085;-57
2023/12/27 01:55:41;;;;;;;;;;;;;;;;;;5075670;28;2036;-56
2023/12/27 01:58:08;;;;;;;;;;;;;;;;;;5076138;28;844;-57
2023/12/27 02:00:36;;;;;;;;;;;;;;;;;;5075483;28;781;-57
2023/12/27 02:03:02;;;;;;;;;;;;;;;;;;5075004;28;872;-58
2023/12/27 02:05:27;;;;;;;;;;;;;;;;;;5075499;28;884;-56
2023/12/27 02:07:53;;;;;;;;;;;;;;;;;;5075931;28;1063;-58
2023/12/27 02:10:18;;;;;;;;;;;;;;;;;;5075605;28;837;-59
2023/12/27 02:12:43;;;;;;;;;;;;;;;;;;5075862;28;824;-58
2023/12/27 02:15:08;;;;;;;;;;;;;;;;;;5075568;28;1972;-58
2023/12/27 02:17:34;;;;;;;;;;;;;;;;;;5075591;28;921;-58
2023/12/27 02:19:59;;;;;;;;;;;;;;;;;;5075536;28;865;-58
2023/12/27 02:22:27;;;;;;;;;;;;;;;;;;5075755;28;817;-58
2023/12/27 02:24:55;;;;;;;;;;;;;;;;;;5075686;28;927;-59
2023/12/27 02:27:21;;;;;;;;;;;;;;;;;;5075481;28;971;-59
2023/12/27 02:29:46;;;;;;;;;;;;;;;;;;5075321;28;1002;-58
2023/12/27 02:32:11;;;;;;;;;;;;;;;;;;5075390;28;888;-58
2023/12/27 02:34:37;;;;;;;;;;;;;;;;;;5075452;28;1914;-59
2023/12/27 02:37:02;;;;;;;;;;;;;;;;;;5075444;28;966;-58
2023/12/27 02:39:27;;;;;;;;;;;;;;;;;;5075518;28;864;-60
2023/12/27 02:41:53;;;;;;;;;;;;;;;;;;5075848;28;947;-58
2023/12/27 02:44:18;;;;;;;;;;;;;;;;;;5075297;28;838;-58
2023/12/27 02:46:43;;;;;;;;;;;;;;;;;;5075444;28;836;-58
2023/12/27 02:49:09;;;;;;;;;;;;;;;;;;5075232;28;829;-57
2023/12/27 02:51:34;;;;;;;;;;;;;;;;;;5075327;28;825;-58
2023/12/27 02:53:59;;;;;;;;;;;;;;;;;;5074905;28;906;-58
2023/12/27 02:56:25;;;;;;;;;;;;;;;;;;5075252;28;1902;-58
2023/12/27 02:58:50;;;;;;;;;;;;;;;;;;5075091;28;840;-58
2023/12/27 03:01:15;;;;;;;;;;;;;;;;;;5074847;28;1029;-58
2023/12/27 03:03:41;;;;;;;;;;;;;;;;;;5074899;28;853;-59
2023/12/27 03:06:06;;;;;;;;;;;;;;;;;;5075024;28;853;-58
2023/12/27 03:08:31;;;;;;;;;;;;;;;;;;5073827;28;837;-58
2023/12/27 03:11:00;;;;;;;;;;;;;;;;;;5074697;28;817;-59
2023/12/27 03:13:25;;;;;;;;;;;;;;;;;;5074558;28;920;-57
2023/12/27 03:15:50;;;;;;;;;;;;;;;;;;5074809;28;1971;-58
2023/12/27 03:18:15;;;;;;;;;;;;;;;;;;5074973;28;871;-58
2023/12/27 03:20:41;;;;;;;;;;;;;;;;;;5074327;28;1020;-58
2023/12/27 03:23:06;;;;;;;;;;;;;;;;;;5075212;28;998;-59
2023/12/27 03:25:31;;;;;;;;;;;;;;;;;;5074977;28;979;-59
2023/12/27 03:27:56;;;;;;;;;;;;;;;;;;5074792;28;870;-59
2023/12/27 03:30:22;;;;;;;;;;;;;;;;;;5074537;28;868;-58
2023/12/27 03:32:48;;;;;;;;;;;;;;;;;;5074928;28;907;-59
2023/12/27 03:35:13;;;;;;;;;;;;;;;;;;5074779;28;1948;-58
2023/12/27 03:37:39;;;;;;;;;;;;;;;;;;5075139;28;895;-62
2023/12/27 03:40:05;;;;;;;;;;;;;;;;;;5075312;28;860;-58
2023/12/27 03:42:30;;;;;;;;;;;;;;;;;;5074678;28;828;-58
2023/12/27 03:44:55;;;;;;;;;;;;;;;;;;5074600;28;841;-58
2023/12/27 03:47:20;;;;;;;;;;;;;;;;;;5074257;28;942;-58
2023/12/27 03:49:46;;;;;;;;;;;;;;;;;;5073350;28;1161;-59
2023/12/27 03:52:11;;;;;;;;;;;;;;;;;;5074602;28;828;-59
2023/12/27 03:54:37;;;;;;;;;;;;;;;;;;5074377;28;1905;-59
2023/12/27 03:57:02;;;;;;;;;;;;;;;;;;5074442;28;1022;-57
2023/12/27 03:59:28;;;;;;;;;;;;;;;;;;5074194;28;832;-59
2023/12/27 04:01:53;;;;;;;;;;;;;;;;;;5074399;28;960;-59
2023/12/27 04:04:19;;;;;;;;;;;;;;;;;;5074356;28;816;-59
2023/12/27 04:06:44;;;;;;;;;;;;;;;;;;5073189;28;904;-58
2023/12/27 04:09:10;;;;;;;;;;;;;;;;;;5074068;28;899;-58
2023/12/27 04:11:42;;;;;;;;;;;;;;;;;;5074476;28;860;-58
2023/12/27 04:14:07;;;;;;;;;;;;;;;;;;5074649;28;1897;-58
2023/12/27 04:16:32;;;;;;;;;;;;;;;;;;5074004;28;856;-58
2023/12/27 04:18:57;;;;;;;;;;;;;;;;;;5073837;28;892;-58
2023/12/27 04:21:25;;;;;;;;;;;;;;;;;;5074166;28;821;-58
2023/12/27 04:23:50;;;;;;;;;;;;;;;;;;5073771;28;860;-58
2023/12/27 04:26:15;;;;;;;;;;;;;;;;;;5074141;28;975;-57
2023/12/27 04:28:40;;;;;;;;;;;;;;;;;;5072903;28;1019;-58
2023/12/27 04:31:06;;;;;;;;;;;;;;;;;;5073945;28;1057;-58
2023/12/27 04:33:31;;;;;;;;;;;;;;;;;;5076676;28;1169;-58
2023/12/27 04:35:56;;;;;;;;;;;;;;;;;;5077882;28;1897;-58
2023/12/27 04:38:21;;;;;;;;;;;;;;;;;;5077443;28;995;-58
2023/12/27 04:40:48;;;;;;;;;;;;;;;;;;5076548;28;951;-58
2023/12/27 04:43:13;;;;;;;;;;;;;;;;;;5077569;28;852;-58
2023/12/27 04:45:38;;;;;;;;;;;;;;;;;;5077577;28;924;-58
2023/12/27 04:48:04;;;;;;;;;;;;;;;;;;5077516;28;936;-59
2023/12/27 04:50:30;;;;;;;;;;;;;;;;;;5077154;28;880;-59
2023/12/27 04:52:55;;;;;;;;;;;;;;;;;;5077549;28;841;-58
2023/12/27 04:55:20;;;;;;;;;;;;;;;;;;5075691;28;1890;-56
2023/12/27 04:57:46;;;;;;;;;;;;;;;;;;5077726;28;900;-56
2023/12/27 05:00:11;;;;;;;;;;;;;;;;;;5077535;28;983;-57
2023/12/27 05:02:36;;;;;;;;;;;;;;;;;;5079348;28;1191;-57
2023/12/27 05:05:02;;;;;;;;;;;;;;;;;;5057686;28;873;-57
2023/12/27 05:07:27;;;;;;;;;;;;;;;;;;5075240;28;836;-58
2023/12/27 05:09:52;;;;;;;;;;;;;;;;;;5075527;28;997;-57
2023/12/27 05:12:18;;;;;;;;;;;;;;;;;;5074157;28;868;-57
2023/12/27 05:14:43;;;;;;;;;;;;;;;;;;5075431;28;2319;-59
2023/12/27 05:17:09;;;;;;;;;;;;;;;;;;5075371;28;951;-57
2023/12/27 05:19:37;;;;;;;;;;;;;;;;;;5076382;28;947;-58
2023/12/27 05:22:02;;;;;;;;;;;;;;;;;;5076858;28;928;-57
2023/12/27 05:24:27;;;;;;;;;;;;;;;;;;5077216;28;1066;-57
2023/12/27 05:26:54;;;;;;;;;;;;;;;;;;5076978;28;859;-58
2023/12/27 05:29:19;;;;;;;;;;;;;;;;;;5076457;28;853;-56
2023/12/27 05:31:45;;;;;;;;;;;;;;;;;;5077394;28;935;-59
2023/12/27 05:34:10;;;;;;;;;;;;;;;;;;5076512;28;1902;-57
2023/12/27 05:36:35;;;;;;;;;;;;;;;;;;5077277;28;936;-58
2023/12/27 05:39:00;;;;;;;;;;;;;;;;;;5077027;28;844;-59
2023/12/27 05:41:26;;;;;;;;;;;;;;;;;;5075270;28;844;-57
2023/12/27 05:43:53;;;;;;;;;;;;;;;;;;5075614;28;892;-57
2023/12/27 05:46:18;;;;;;;;;;;;;;;;;;5075475;28;789;-58
2023/12/27 05:48:43;;;;;;;;;;;;;;;;;;5075378;28;911;-58
2023/12/27 05:51:11;;;;;;;;;;;;;;;;;;5076474;28;923;-58
2023/12/27 05:53:36;;;;;;;;;;;;;;;;;;5076716;28;956;-58
2023/12/27 05:56:02;;;;;;;;;;;;;;;;;;5076883;28;1906;-58
2023/12/27 05:58:28;;;;;;;;;;;;;;;;;;5075924;28;895;-57
2023/12/27 06:00:53;;;;;;;;;;;;;;;;;;5076508;28;994;-58
2023/12/27 06:03:18;;;;;;;;;;;;;;;;;;5076234;28;872;-58
2023/12/27 06:05:43;;;;;;;;;;;;;;;;;;5074874;28;694;-57
2023/12/27 06:08:09;;;;;;;;;;;;;;;;;;5075153;28;939;-58
2023/12/27 06:10:35;;;;;;;;;;;;;;;;;;5075452;28;868;-57
2023/12/27 06:13:00;;;;;;;;;;;;;;;;;;5076143;28;860;-58
2023/12/27 06:15:25;;;;;;;;;;;;;;;;;;5076767;28;1902;-57
2023/12/27 06:17:51;;;;;;;;;;;;;;;;;;5074623;28;955;-58
2023/12/27 06:20:16;;;;;;;;;;;;;;;;;;5074775;28;856;-58
2023/12/27 06:22:42;;;;;;;;;;;;;;;;;;5076062;28;849;-59
2023/12/27 06:25:07;;;;;;;;;;;;;;;;;;5075709;28;840;-59
2023/12/27 06:27:32;;;;;;;;;;;;;;;;;;5075829;28;880;-58
2023/12/27 06:29:58;;;;;;;;;;;;;;;;;;5076176;28;840;-59
2023/12/27 06:32:23;;;;;;;;;;;;;;;;;;5076060;28;955;-57
2023/12/27 06:34:48;;;;;;;;;;;;;;;;;;5076048;28;1905;-60
2023/12/27 06:37:16;;;;;;;;;;;;;;;;;;5074621;28;912;-58
2023/12/27 06:39:41;;;;;;;;;;;;;;;;;;5075930;28;880;-58
2023/12/27 06:42:07;;;;;;;;;;;;;;;;;;5075508;28;887;-58
2023/12/27 06:44:32;;;;;;;;;;;;;;;;;;5072745;28;867;-58
2023/12/27 06:46:58;;;;;;;;;;;;;;;;;;5075463;28;1015;-57
2023/12/27 06:49:23;;;;;;;;;;;;;;;;;;5075741;28;911;-57
2023/12/27 06:51:48;;;;;;;;;;;;;;;;;;5075250;28;1030;-58
2023/12/27 06:54:13;;;;;;;;;;;;;;;;;;5075123;28;1898;-59
2023/12/27 06:56:39;;;;;;;;;;;;;;;;;;5074605;28;920;-59
2023/12/27 06:59:05;;;;;;;;;;;;;;;;;;5075241;28;941;-57
2023/12/27 07:01:30;;;;;;;;;;;;;;;;;;5075667;28;940;-58
2023/12/27 07:03:56;;;;;;;;;;;;;;;;;;5073830;28;1187;-58
2023/12/27 07:06:21;;;;;;;;;;;;;;;;;;5073162;28;955;-58
2023/12/27 07:08:46;;;;;;;;;;;;;;;;;;5073354;28;1071;-58
2023/12/27 07:11:18;;;;;;;;;;;;;;;;;;5073310;28;892;-58
2023/12/27 07:13:46;;;;;;;;;;;;;;;;;;5073345;28;895;-58
2023/12/27 07:16:11;;;;;;;;;;;;;;;;;;5073394;28;1910;-58
2023/12/27 07:18:36;;;;;;;;;;;;;;;;;;5073787;28;613;-58
2023/12/27 07:21:04;;;;;;;;;;;;;;;;;;5073380;28;879;-58
2023/12/27 07:23:29;;;;;;;;;;;;;;;;;;5075161;28;876;-58
2023/12/27 07:25:54;;;;;;;;;;;;;;;;;;5073638;28;943;-57
2023/12/27 07:28:20;;;;;;;;;;;;;;;;;;5073556;28;872;-59
2023/12/27 07:30:45;;;;;;;;;;;;;;;;;;5074959;28;970;-58
2023/12/27 07:33:12;;;;;;;;;;;;;;;;;;5073469;28;848;-57
2023/12/27 07:35:37;;;;;;;;;;;;;;;;;;5074890;28;1897;-59
2023/12/27 07:38:03;;;;;;;;;;;;;;;;;;5074892;28;892;-58
2023/12/27 07:40:28;;;;;;;;;;;;;;;;;;5073291;28;935;-58
2023/12/27 07:42:54;;;;;;;;;;;;;;;;;;5074821;28;903;-58
2023/12/27 07:45:22;;;;;;;;;;;;;;;;;;5074927;28;943;-59
2023/12/27 07:47:47;;;;;;;;;;;;;;;;;;5074354;28;860;-57
2023/12/27 07:50:12;;;;;;;;;;;;;;;;;;5074794;28;880;-57
2023/12/27 07:52:38;;;;;;;;;;;;;;;;;;5073633;28;912;-57
2023/12/27 07:55:03;;;;;;;;;;;;;;;;;;5074257;28;1902;-58
2023/12/27 07:57:29;;;;;;;;;;;;;;;;;;5072605;28;1112;-58
2023/12/27 07:59:57;;;;;;;;;;;;;;;;;;5073721;28;829;-58
2023/12/27 08:02:22;;;;;;;;;;;;;;;;;;5073221;28;848;-58
2023/12/27 08:04:47;;;;;;;;;;;;;;;;;;5072820;28;904;-59
2023/12/27 08:07:12;;;;;;;;;;;;;;;;;;5072326;28;824;-59
2023/12/27 08:09:38;;;;;;;;;;;;;;;;;;5072080;28;868;-58
2023/12/27 08:12:04;;;;;;;;;;;;;;;;;;5072535;28;1073;-57
2023/12/27 08:14:29;;;;;;;;;;;;;;;;;;5072087;28;1981;-57
2023/12/27 08:16:55;;;;;;;;;;;;;;;;;;5072096;28;895;-58
2023/12/27 08:19:20;;;;;;;;;;;;;;;;;;5071861;28;869;-58
2023/12/27 08:21:46;;;;;;;;;;;;;;;;;;5072303;28;655;-58
2023/12/27 08:24:11;;;;;;;;;;;;;;;;;;5073824;28;856;-57
2023/12/27 08:26:36;;;;;;;;;;;;;;;;;;5074343;28;921;-56
2023/12/27 08:29:02;;;;;;;;;;;;;;;;;;5072219;28;896;-58
2023/12/27 08:31:28;;;;;;;;;;;;;;;;;;5073751;28;881;-57
2023/12/27 08:33:53;;;;;;;;;;;;;;;;;;5073563;28;909;-58
2023/12/27 08:36:19;;;;;;;;;;;;;;;;;;5073872;28;1961;-56
2023/12/27 08:38:44;;;;;;;;;;;;;;;;;;5074186;28;900;-57
2023/12/27 08:41:09;;;;;;;;;;;;;;;;;;5073864;28;887;-57
2023/12/27 08:43:37;;;;;;;;;;;;;;;;;;5072424;28;892;-57
2023/12/27 08:46:02;;;;;;;;;;;;;;;;;;5073647;28;1105;-58
2023/12/27 08:48:27;;;;;;;;;;;;;;;;;;5072650;28;876;-58
2023/12/27 08:50:53;;;;;;;;;;;;;;;;;;5073053;28;906;-58
2023/12/27 08:53:18;;;;;;;;;;;;;;;;;;5073257;28;1010;-57
2023/12/27 08:55:43;;;;;;;;;;;;;;;;;;5072247;28;1949;-59
2023/12/27 08:58:09;;;;;;;;;;;;;;;;;;5073510;28;872;-58
2023/12/27 09:00:34;;;;;;;;;;;;;;;;;;5072043;28;1278;-57
2023/12/27 09:03:00;;;;;;;;;;;;;;;;;;5073051;28;789;-58
2023/12/27 09:05:25;;;;;;;;;;;;;;;;;;5073253;28;828;-58
2023/12/27 09:07:50;;;;;;;;;;;;;;;;;;5070390;28;864;-57
2023/12/27 09:10:15;;;;;;;;;;;;;;;;;;5071132;28;832;-57
2023/12/27 09:12:41;;;;;;;;;;;;;;;;;;5072341;28;903;-58
2023/12/27 09:15:07;;;;;;;;;;;;;;;;;;5072373;28;1882;-58
2023/12/27 09:17:32;;;;;;;;;;;;;;;;;;5072533;28;817;-58
2023/12/27 09:19:57;;;;;;;;;;;;;;;;;;5073509;28;1297;-57
2023/12/27 09:22:23;;;;;;;;;;;;;;;;;;5075119;28;880;-58
2023/12/27 09:24:48;;;;;;;;;;;;;;;;;;5075027;28;880;-58
2023/12/27 09:27:17;;;;;;;;;;;;;;;;;;5074883;28;860;-58
2023/12/27 09:29:43;;;;;;;;;;;;;;;;;;5075164;28;599;-58
2023/12/27 09:32:08;;;;;;;;;;;;;;;;;;5074835;28;836;-56
2023/12/27 09:34:33;;;;;;;;;;;;;;;;;;5075436;28;1953;-56
2023/12/27 09:36:58;;;;;;;;;;;;;;;;;;5076489;28;856;-56
2023/12/27 09:39:25;;;;;;;;;;;;;;;;;;5075970;28;900;-56
2023/12/27 09:41:50;;;;;;;;;;;;;;;;;;5074918;28;849;-56
2023/12/27 09:44:18;;;;;;;;;;;;;;;;;;5076028;28;884;-56
2023/12/27 09:46:43;;;;;;;;;;;;;;;;;;5075945;28;895;-57
2023/12/27 09:49:09;;;;;;;;;;;;;;;;;;5076040;28;928;-56
2023/12/27 09:51:35;;;;;;;;;;;;;;;;;;5058382;28;862;-56
2023/12/27 09:54:00;;;;;;;;;;;;;;;;;;5076390;28;915;-56
2023/12/27 09:56:27;;;;;;;;;;;;;;;;;;5075146;28;1965;-57
2023/12/27 09:58:57;;;;;;;;;;;;;;;;;;5076445;28;903;-56
2023/12/27 10:01:26;;;;;;;;;;;;;;;;;;5075960;28;1042;-57
2023/12/27 10:03:54;;;;;;;;;;;;;;;;;;5076528;28;816;-57
2023/12/27 10:06:29;;;;;;;;;;;;;;;;;;5075999;28;987;-57
2023/12/27 10:08:54;;;;;;;;;;;;;;;;;;5074024;28;1007;-58
2023/12/27 10:11:20;;;;;;;;;;;;;;;;;;5074077;28;903;-58
2023/12/27 10:13:47;;;;;;;;;;;;;;;;;;5073745;28;991;-56
2023/12/27 10:16:12;;;;;;;;;;;;;;;;;;5073618;28;1905;-57
2023/12/27 10:18:37;;;;;;;;;;;;;;;;;;5072884;28;971;-58
2023/12/27 10:21:04;;;;;;;;;;;;;;;;;;5073923;28;902;-58
2023/12/27 10:23:32;;;;;;;;;;;;;;;;;;5074592;28;852;-59
2023/12/27 10:25:58;;;;;;;;;;;;;;;;;;5075552;28;828;-58
2023/12/27 10:28:26;;;;;;;;;;;;;;;;;;5075375;28;888;-58
2023/12/27 10:30:52;;;;;;;;;;;;;;;;;;5073906;28;959;-57
2023/12/27 10:33:19;;;;;;;;;;;;;;;;;;5075242;28;1921;-56
2023/12/27 10:35:45;;;;;;;;;;;;;;;;;;5074619;28;1882;-57
2023/12/27 10:38:10;;;;;;;;;;;;;;;;;;5075067;28;915;-56
2023/12/27 10:40:36;;;;;;;;;;;;;;;;;;5057400;28;1332;-57
2023/12/27 10:43:02;;;;;;;;;;;;;;;;;;5074792;28;880;-56
2023/12/27 10:45:28;;;;;;;;;;;;;;;;;;5074804;28;847;-57
2023/12/27 10:47:57;;;;;;;;;;;;;;;;;;5073628;28;1419;-58
2023/12/27 10:50:25;;;;;;;;;;;;;;;;;;5073536;28;930;-57
2023/12/27 10:52:56;;;;;;;;;;;;;;;;;;5072946;28;844;-57
2023/12/27 10:55:22;;;;;;;;;;;;;;;;;;5072459;28;1964;-57
2023/12/27 10:57:53;;;;;;;;;;;;;;;;;;5071697;28;1178;-57
2023/12/27 11:00:19;;;;;;;;;;;;;;;;;;5073025;28;867;-57
2023/12/27 11:02:45;;;;;;;;;;;;;;;;;;5071837;28;852;-58
2023/12/27 11:05:11;;;;;;;;;;;;;;;;;;5072391;28;1412;-56
2023/12/27 11:07:40;;;;;;;;;;;;;;;;;;5074668;28;829;-56
2023/12/27 11:10:06;;;;;;;;;;;;;;;;;;5073209;28;891;-56
2023/12/27 11:12:33;;;;;;;;;;;;;;;;;;5072929;28;971;-56
2023/12/27 11:15:02;;;;;;;;;;;;;;;;;;5072872;28;1902;-57
2023/12/27 11:17:28;;;;;;;;;;;;;;;;;;5072483;28;860;-58
2023/12/27 11:19:54;;;;;;;;;;;;;;;;;;5072539;28;951;-58
2023/12/27 11:22:19;;;;;;;;;;;;;;;;;;5072773;28;1165;-57
2023/12/27 11:24:44;;;;;;;;;;;;;;;;;;5073320;28;904;-58
2023/12/27 11:27:10;;;;;;;;;;;;;;;;;;5072911;28;995;-58
2023/12/27 11:29:37;;;;;;;;;;;;;;;;;;5073347;28;865;-57
2023/12/27 11:32:03;;;;;;;;;;;;;;;;;;5074405;28;895;-57
2023/12/27 11:34:30;;;;;;;;;;;;;;;;;;5074384;28;1965;-57
2023/12/27 11:36:55;;;;;;;;;;;;;;;;;;5074672;28;927;-57
2023/12/27 11:39:23;;;;;;;;;;;;;;;;;;5074350;28;797;-57
2023/12/27 11:41:49;;;;;;;;;;;;;;;;;;5073745;28;840;-57
2023/12/27 11:44:14;;;;;;;;;;;;;;;;;;5074576;28;1030;-58
2023/12/27 11:46:41;;;;;;;;;;;;;;;;;;5072755;28;876;-58
2023/12/27 11:49:07;;;;;;;;;;;;;;;;;;5074554;28;892;-58
2023/12/27 11:51:34;;;;;;;;;;;;;;;;;;5074330;28;1015;-58
2023/12/27 11:53:59;;;;;;;;;;;;;;;;;;5074837;28;878;-56
2023/12/27 11:56:32;;;;;;;;;;;;;;;;;;5073786;28;1918;-57
2023/12/27 11:58:58;;;;;;;;;;;;;;;;;;5072498;28;913;-58
2023/12/27 12:01:28;;;;;;;;;;;;;;;;;;5073975;28;971;-57
2023/12/27 12:04:12;;;;;;;;;;;;;;;;;;5073132;28;1376;-57
2023/12/27 12:06:44;;;;;;;;;;;;;;;;;;5073770;28;943;-57
2023/12/27 12:09:10;;;;;;;;;;;;;;;;;;5073725;28;875;-58
2023/12/27 12:11:35;;;;;;;;;;;;;;;;;;5072568;28;947;-57
2023/12/27 12:14:01;;;;;;;;;;;;;;;;;;5072983;28;1046;-56
2023/12/27 12:16:31;;;;;;;;;;;;;;;;;;5072901;28;1910;-58
2023/12/27 12:18:58;;;;;;;;;;;;;;;;;;5072736;28;888;-57
2023/12/27 12:21:23;;;;;;;;;;;;;;;;;;5073034;28;908;-57
2023/12/27 12:23:48;;;;;;;;;;;;;;;;;;5072798;28;883;-56
2023/12/27 12:26:14;;;;;;;;;;;;;;;;;;5073364;28;837;-57
2023/12/27 12:28:40;;;;;;;;;;;;;;;;;;5073774;28;1207;-57
2023/12/27 12:31:05;;;;;;;;;;;;;;;;;;5074043;28;892;-57
2023/12/27 12:33:30;;;;;;;;;;;;;;;;;;5073798;28;1002;-59
2023/12/27 12:35:55;;;;;;;;;;;;;;;;;;5073447;28;1898;-57
2023/12/27 12:38:21;;;;;;;;;;;;;;;;;;5074090;28;792;-56
2023/12/27 12:40:47;;;;;;;;;;;;;;;;;;5073836;28;931;-57
2023/12/27 12:43:14;;;;;;;;;;;;;;;;;;5073566;28;824;-57
2023/12/27 12:45:39;;;;;;;;;;;;;;;;;;5073741;28;942;-57
2023/12/27 12:48:05;;;;;;;;;;;;;;;;;;5072303;28;872;-56
2023/12/27 12:50:30;;;;;;;;;;;;;;;;;;5072970;28;896;-57
2023/12/27 12:52:55;;;;;;;;;;;;;;;;;;5073648;28;833;-56
2023/12/27 12:55:28;;;;;;;;;;;;;;;;;;5077186;28;1962;-56
2023/12/27 12:57:53;;;;;;;;;;;;;;;;;;5077167;28;876;-57
2023/12/27 13:00:22;;;;;;;;;;;;;;;;;;5076537;28;1057;-58
2023/12/27 13:02:48;;;;;;;;;;;;;;;;;;5076973;28;836;-56
2023/12/27 13:05:13;;;;;;;;;;;;;;;;;;5077386;28;853;-57
2023/12/27 13:07:38;;;;;;;;;;;;;;;;;;5077064;28;879;-57
2023/12/27 13:10:05;;;;;;;;;;;;;;;;;;5077174;28;1063;-56
2023/12/27 13:12:31;;;;;;;;;;;;;;;;;;5075683;28;923;-57
2023/12/27 13:14:57;;;;;;;;;;;;;;;;;;5076262;28;1963;-57
2023/12/27 13:17:23;;;;;;;;;;;;;;;;;;5076791;28;856;-58
2023/12/27 13:19:48;;;;;;;;;;;;;;;;;;5077130;28;879;-58
2023/12/27 13:22:13;;;;;;;;;;;;;;;;;;5076674;28;856;-59
2023/12/27 13:24:39;;;;;;;;;;;;;;;;;;5076573;28;873;-62
2023/12/27 13:27:05;;;;;;;;;;;;;;;;;;5077025;28;966;-57
2023/12/27 13:29:30;;;;;;;;;;;;;;;;;;5076093;28;1758;-58
2023/12/27 13:31:55;;;;;;;;;;;;;;;;;;5077150;28;919;-58
2023/12/27 13:34:21;;;;;;;;;;;;;;;;;;5076803;28;999;-59
2023/12/27 13:36:46;;;;;;;;;;;;;;;;;;5077310;28;1960;-57
2023/12/27 13:39:13;;;;;;;;;;;;;;;;;;5077104;28;809;-58
2023/12/27 13:41:39;;;;;;;;;;;;;;;;;;5076809;28;860;-59
2023/12/27 13:44:04;;;;;;;;;;;;;;;;;;5075638;28;1144;-58
2023/12/27 13:46:30;;;;;;;;;;;;;;;;;;5075953;28;789;-59
2023/12/27 13:48:56;;;;;;;;;;;;;;;;;;5075691;28;1190;-58
2023/12/27 13:51:21;;;;;;;;;;;;;;;;;;5074984;28;813;-58
2023/12/27 13:53:46;;;;;;;;;;;;;;;;;;5076185;28;1074;-58
2023/12/27 13:56:12;;;;;;;;;;;;;;;;;;5076383;28;1963;-58
2023/12/27 13:58:37;;;;;;;;;;;;;;;;;;5076586;28;824;-58
2023/12/27 14:01:04;;;;;;;;;;;;;;;;;;5076663;28;904;-58
2023/12/27 14:03:31;;;;;;;;;;;;;;;;;;5076435;28;652;-58
2023/12/27 14:05:56;;;;;;;;;;;;;;;;;;5075760;28;828;-57
2023/12/27 14:08:22;;;;;;;;;;;;;;;;;;5074700;28;1344;-59
2023/12/27 14:10:47;;;;;;;;;;;;;;;;;;5076198;28;1196;-59
2023/12/27 14:13:13;;;;;;;;;;;;;;;;;;5073926;28;742;-58
2023/12/27 14:15:38;;;;;;;;;;;;;;;;;;5072532;28;1918;-58
2023/12/27 14:18:04;;;;;;;;;;;;;;;;;;5074195;28;805;-57
2023/12/27 14:20:31;;;;;;;;;;;;;;;;;;5073873;28;888;-57
2023/12/27 14:22:56;;;;;;;;;;;;;;;;;;5072750;28;876;-57
2023/12/27 14:25:22;;;;;;;;;;;;;;;;;;5072544;28;1298;-57
2023/12/27 14:27:47;;;;;;;;;;;;;;;;;;5074479;28;884;-57
2023/12/27 14:30:13;;;;;;;;;;;;;;;;;;5075454;28;853;-57
2023/12/27 14:32:38;;;;;;;;;;;;;;;;;;5075435;28;942;-57
2023/12/27 14:35:04;;;;;;;;;;;;;;;;;;5075471;28;1902;-57
2023/12/27 14:37:30;;;;;;;;;;;;;;;;;;5073983;28;1243;-57
2023/12/27 14:39:55;;;;;;;;;;;;;;;;;;5075091;28;883;-56
2023/12/27 14:42:20;;;;;;;;;;;;;;;;;;5075655;28;812;-59
2023/12/27 14:44:46;;;;;;;;;;;;;;;;;;5075187;28;959;-58
2023/12/27 14:47:12;;;;;;;;;;;;;;;;;;5074943;28;642;-58
2023/12/27 14:49:39;;;;;;;;;;;;;;;;;;5075870;28;825;-58
2023/12/27 14:52:05;;;;;;;;;;;;;;;;;;5074246;28;1251;-59
2023/12/27 14:54:30;;;;;;;;;;;;;;;;;;5074860;28;1996;-58
2023/12/27 14:56:55;;;;;;;;;;;;;;;;;;5074993;28;873;-58
2023/12/27 14:59:20;;;;;;;;;;;;;;;;;;5073792;28;960;-59
2023/12/27 15:01:46;;;;;;;;;;;;;;;;;;5075625;28;888;-58
2023/12/27 15:04:11;;;;;;;;;;;;;;;;;;5075421;28;840;-57
2023/12/27 15:06:36;;;;;;;;;;;;;;;;;;5073814;28;899;-58
2023/12/27 15:09:03;;;;;;;;;;;;;;;;;;5075194;28;864;-57
2023/12/27 15:11:29;;;;;;;;;;;;;;;;;;5075226;28;836;-60
2023/12/27 15:13:55;;;;;;;;;;;;;;;;;;5073941;28;891;-57
2023/12/27 15:16:20;;;;;;;;;;;;;;;;;;5072027;28;1905;-57
2023/12/27 15:18:46;;;;;;;;;;;;;;;;;;5072168;28;1136;-58
2023/12/27 15:21:15;;;;;;;;;;;;;;;;;;5072798;28;943;-57
2023/12/27 15:23:41;;;;;;;;;;;;;;;;;;5072825;28;840;-57
2023/12/27 15:26:06;;;;;;;;;;;;;;;;;;5071870;28;912;-57
2023/12/27 15:28:32;;;;;;;;;;;;;;;;;;5072995;28;939;-57
2023/12/27 15:30:57;;;;;;;;;;;;;;;;;;5073651;28;1341;-58
2023/12/27 15:33:23;;;;;;;;;;;;;;;;;;5074610;28;1014;-58
2023/12/27 15:35:48;;;;;;;;;;;;;;;;;;5074290;28;1967;-57
2023/12/27 15:38:14;;;;;;;;;;;;;;;;;;5074754;28;876;-56
2023/12/27 15:40:39;;;;;;;;;;;;;;;;;;5074416;28;1297;-57
2023/12/27 15:43:04;;;;;;;;;;;;;;;;;;5074679;28;911;-57
2023/12/27 15:45:30;;;;;;;;;;;;;;;;;;5074013;28;1076;-57
2023/12/27 15:47:55;;;;;;;;;;;;;;;;;;5074445;28;837;-57
2023/12/27 15:50:21;;;;;;;;;;;;;;;;;;5074361;28;876;-57
2023/12/27 15:52:46;;;;;;;;;;;;;;;;;;5074013;28;845;-57
2023/12/27 15:55:16;;;;;;;;;;;;;;;;;;5074282;28;1952;-57
2023/12/27 15:57:42;;;;;;;;;;;;;;;;;;5074043;28;1002;-57
2023/12/27 16:00:08;;;;;;;;;;;;;;;;;;5072984;28;924;-57
2023/12/27 16:02:33;;;;;;;;;;;;;;;;;;5074553;28;864;-58
2023/12/27 16:04:59;;;;;;;;;;;;;;;;;;5073993;28;999;-57
2023/12/27 16:07:24;;;;;;;;;;;;;;;;;;5073941;28;962;-58
2023/12/27 16:09:50;;;;;;;;;;;;;;;;;;5073952;28;856;-57
2023/12/27 16:12:15;;;;;;;;;;;;;;;;;;5073314;28;1163;-57
2023/12/27 16:14:42;;;;;;;;;;;;;;;;;;5085882;28;1890;-57
2023/12/27 16:17:07;;;;;;;;;;;;;;;;;;5075656;28;1260;-57
2023/12/27 16:19:35;;;;;;;;;;;;;;;;;;5069022;28;1100;-57
2023/12/27 16:22:00;;;;;;;;;;;;;;;;;;5076097;28;1032;-58
2023/12/27 16:24:26;;;;;;;;;;;;;;;;;;5071283;28;1278;-57
2023/12/27 16:26:51;;;;;;;;;;;;;;;;;;5093311;28;934;-56
2023/12/27 16:29:19;;;;;;;;;;;;;;;;;;5096618;28;907;-58
2023/12/27 16:31:44;;;;;;;;;;;;;;;;;;5096969;28;1182;-59
2023/12/27 16:34:09;;;;;;;;;;;;;;;;;;5098268;28;883;-58
2023/12/27 16:36:35;;;;;;;;;;;;;;;;;;5098900;28;1890;-58
2023/12/27 16:39:00;;;;;;;;;;;;;;;;;;5098580;28;914;-58
2023/12/27 16:41:25;;;;;;;;;;;;;;;;;;5097998;28;970;-57
2023/12/27 16:43:56;;;;;;;;;;;;;;;;;;5098426;28;844;-57
2023/12/27 16:46:21;;;;;;;;;;;;;;;;;;5098137;28;914;-58
2023/12/27 16:48:47;;;;;;;;;;;;;;;;;;5098561;28;891;-58
2023/12/27 16:51:12;;;;;;;;;;;;;;;;;;5098337;28;844;-59
2023/12/27 16:53:38;;;;;;;;;;;;;;;;;;5097723;28;940;-59
2023/12/27 16:56:03;;;;;;;;;;;;;;;;;;5097789;28;1882;-59
2023/12/27 16:58:28;;;;;;;;;;;;;;;;;;5097193;28;1038;-59
2023/12/27 17:00:54;;;;;;;;;;;;;;;;;;5097011;28;929;-59
2023/12/27 17:03:20;;;;;;;;;;;;;;;;;;5096265;28;1006;-59
2023/12/27 17:05:45;;;;;;;;;;;;;;;;;;5097550;28;777;-58